createdAt,value
2018-03-18T00:00:01.654Z,-1.63
2018-03-18T00:02:32.620Z,-1.64
2018-03-18T00:05:00.031Z,-1.59
2018-03-18T00:07:27.463Z,-1.58
2018-03-18T00:09:54.861Z,-1.59
2018-03-18T00:12:22.255Z,-1.63
2018-03-18T00:14:49.682Z,-1.74
2018-03-18T00:17:17.081Z,-1.67
2018-03-18T00:19:44.508Z,-1.67
2018-03-18T00:22:12.003Z,-1.76
2018-03-18T00:24:39.403Z,-1.77
2018-03-18T00:27:06.807Z,-1.73
2018-03-18T00:29:34.243Z,-1.74
2018-03-18T00:32:01.637Z,-1.76
2018-03-18T00:34:29.392Z,-1.80
2018-03-18T00:36:56.794Z,-1.82
2018-03-18T00:39:24.206Z,-1.72
2018-03-18T00:41:51.618Z,-1.84
2018-03-18T00:44:19.023Z,-1.91
2018-03-18T00:46:46.444Z,-1.93
2018-03-18T00:49:13.860Z,-1.91
2018-03-18T00:51:53.134Z,-1.90
2018-03-18T00:54:20.539Z,-1.84
2018-03-18T00:56:48.051Z,-1.88
2018-03-18T00:59:15.467Z,-1.93
2018-03-18T01:01:42.880Z,-1.94
2018-03-18T01:04:10.294Z,-1.98
2018-03-18T01:06:37.692Z,-2.06
2018-03-18T01:09:05.386Z,-2.10
2018-03-18T01:11:32.783Z,-2.12
2018-03-18T01:14:00.184Z,-2.19
2018-03-18T01:16:27.591Z,-2.24
2018-03-18T01:18:55.012Z,-2.13
2018-03-18T01:21:22.422Z,-2.15
2018-03-18T01:23:49.839Z,-2.21
2018-03-18T01:26:17.246Z,-2.22
2018-03-18T01:28:44.637Z,-2.14
2018-03-18T01:31:12.031Z,-2.22
2018-03-18T01:33:39.443Z,-2.24
2018-03-18T01:36:06.854Z,-2.27
2018-03-18T01:38:34.268Z,-2.26
2018-03-18T01:41:01.675Z,-2.25
2018-03-18T01:43:29.083Z,-2.28
2018-03-18T01:45:56.517Z,-2.30
2018-03-18T01:48:23.920Z,-2.27
2018-03-18T01:50:51.330Z,-2.19
2018-03-18T01:53:21.629Z,-2.29
2018-03-18T01:55:49.023Z,-2.29
2018-03-18T01:58:16.553Z,-2.30
2018-03-18T02:00:43.938Z,-2.38
2018-03-18T02:03:11.351Z,-2.33
2018-03-18T02:05:38.768Z,-2.33
2018-03-18T02:08:06.167Z,-2.46
2018-03-18T02:10:33.799Z,-2.35
2018-03-18T02:13:01.211Z,-2.41
2018-03-18T02:15:28.624Z,-2.46
2018-03-18T02:17:57.844Z,-2.48
2018-03-18T02:20:25.256Z,-2.45
2018-03-18T02:22:52.663Z,-2.52
2018-03-18T02:25:20.051Z,-2.52
2018-03-18T02:27:47.463Z,-2.53
2018-03-18T02:30:14.855Z,-2.48
2018-03-18T02:32:42.398Z,-2.59
2018-03-18T02:35:09.804Z,-2.57
2018-03-18T02:37:37.198Z,-2.57
2018-03-18T02:40:04.606Z,-2.57
2018-03-18T02:42:32.015Z,-2.59
2018-03-18T02:44:59.416Z,-2.55
2018-03-18T02:47:26.835Z,-2.51
2018-03-18T02:49:54.240Z,-2.48
2018-03-18T02:52:21.648Z,-2.55
2018-03-18T02:54:49.039Z,-2.61
2018-03-18T02:57:16.458Z,-2.54
2018-03-18T02:59:43.864Z,-2.61
2018-03-18T03:02:11.271Z,-2.69
2018-03-18T03:04:38.650Z,-2.76
2018-03-18T03:07:06.055Z,-2.70
2018-03-18T03:09:33.453Z,-2.72
2018-03-18T03:12:00.863Z,-2.78
2018-03-18T03:14:28.267Z,-2.77
2018-03-18T03:16:55.734Z,-2.84
2018-03-18T03:19:23.134Z,-2.91
2018-03-18T03:21:50.572Z,-2.92
2018-03-18T03:24:17.967Z,-2.92
2018-03-18T03:26:45.367Z,-2.89
2018-03-18T03:29:12.767Z,-2.82
2018-03-18T03:31:40.176Z,-2.99
2018-03-18T03:34:07.603Z,-2.93
2018-03-18T03:36:34.967Z,-2.97
2018-03-18T03:39:02.531Z,-2.98
2018-03-18T03:41:29.927Z,-3.00
2018-03-18T03:43:57.336Z,-3.00
2018-03-18T03:46:24.899Z,-3.10
2018-03-18T03:48:52.299Z,-3.05
2018-03-18T03:51:19.686Z,-3.13
2018-03-18T03:53:47.099Z,-3.09
2018-03-18T03:56:14.525Z,-3.12
2018-03-18T03:58:41.926Z,-2.97
2018-03-18T04:01:09.342Z,-3.04
2018-03-18T04:03:36.769Z,-3.02
2018-03-18T04:06:04.159Z,-3.06
2018-03-18T04:08:31.559Z,-3.12
2018-03-18T04:10:58.967Z,-3.20
2018-03-18T04:13:26.380Z,-3.17
2018-03-18T04:15:53.776Z,-3.18
2018-03-18T04:18:21.180Z,-3.17
2018-03-18T04:20:48.823Z,-3.18
2018-03-18T04:23:16.219Z,-3.18
2018-03-18T04:25:43.633Z,-3.24
2018-03-18T04:28:11.159Z,-3.22
2018-03-18T04:30:38.554Z,-3.24
2018-03-18T04:33:05.972Z,-3.22
2018-03-18T04:35:33.396Z,-3.31
2018-03-18T04:38:00.796Z,-3.23
2018-03-18T04:40:28.195Z,-3.26
2018-03-18T04:42:55.603Z,-3.26
2018-03-18T04:45:23.031Z,-3.32
2018-03-18T04:47:50.435Z,-3.27
2018-03-18T04:50:17.853Z,-3.30
2018-03-18T04:52:45.255Z,-3.34
2018-03-18T04:55:13.517Z,-3.35
2018-03-18T04:57:40.942Z,-3.28
2018-03-18T05:00:08.352Z,-3.22
2018-03-18T05:02:35.743Z,-3.39
2018-03-18T05:05:03.151Z,-3.32
2018-03-18T05:07:30.914Z,-3.28
2018-03-18T05:09:58.315Z,-3.35
2018-03-18T05:12:25.717Z,-3.35
2018-03-18T05:14:53.136Z,-3.28
2018-03-18T05:17:20.543Z,-3.29
2018-03-18T05:19:47.951Z,-3.37
2018-03-18T05:22:15.363Z,-3.35
2018-03-18T05:24:42.758Z,-3.38
2018-03-18T05:27:10.179Z,-3.43
2018-03-18T05:29:37.576Z,-3.38
2018-03-18T05:32:04.971Z,-3.38
2018-03-18T05:34:32.385Z,-3.41
2018-03-18T05:36:59.786Z,-3.41
2018-03-18T05:39:27.218Z,-3.46
2018-03-18T05:41:54.623Z,-3.32
2018-03-18T05:44:22.019Z,-3.39
2018-03-18T05:46:49.433Z,-3.43
2018-03-18T05:49:16.995Z,-3.50
2018-03-18T05:51:44.424Z,-3.45
2018-03-18T05:54:11.843Z,-3.47
2018-03-18T05:56:39.259Z,-3.42
2018-03-18T05:59:06.662Z,-3.36
2018-03-18T06:01:34.100Z,-3.32
2018-03-18T06:04:01.512Z,-3.32
2018-03-18T06:06:28.910Z,-3.25
2018-03-18T06:08:56.331Z,-3.24
2018-03-18T06:11:23.765Z,-3.25
2018-03-18T06:13:51.159Z,-3.26
2018-03-18T06:16:18.564Z,-3.23
2018-03-18T06:18:45.971Z,-3.18
2018-03-18T06:21:13.388Z,-3.05
2018-03-18T06:23:40.804Z,-3.03
2018-03-18T06:26:08.207Z,-3.06
2018-03-18T06:28:35.631Z,-3.05
2018-03-18T06:31:03.039Z,-3.00
2018-03-18T06:33:30.451Z,-2.88
2018-03-18T06:35:57.852Z,-2.65
2018-03-18T06:38:25.267Z,-2.67
2018-03-18T06:40:52.669Z,-2.56
2018-03-18T06:43:20.331Z,-2.49
2018-03-18T06:45:47.731Z,-2.36
2018-03-18T06:48:15.135Z,-2.41
2018-03-18T06:50:42.561Z,-2.39
2018-03-18T06:53:09.953Z,-2.39
2018-03-18T06:55:37.375Z,-2.25
2018-03-18T06:58:04.771Z,-2.06
2018-03-18T07:00:32.191Z,-1.72
2018-03-18T07:02:59.590Z,-1.39
2018-03-18T07:05:27.016Z,-0.98
2018-03-18T07:07:54.402Z,-0.65
2018-03-18T07:10:21.831Z,-0.44
2018-03-18T07:12:49.244Z,-0.38
2018-03-18T07:15:16.806Z,-0.18
2018-03-18T07:17:44.231Z,-0.25
2018-03-18T07:20:11.678Z,-0.11
2018-03-18T07:22:39.343Z,-0.07
2018-03-18T07:25:06.744Z,0.21
2018-03-18T07:27:34.158Z,0.73
2018-03-18T07:30:01.569Z,0.55
2018-03-18T07:32:28.984Z,0.69
2018-03-18T07:34:56.376Z,0.97
2018-03-18T07:37:23.787Z,1.04
2018-03-18T07:39:51.183Z,0.94
2018-03-18T07:42:18.601Z,0.91
2018-03-18T07:44:45.999Z,0.77
2018-03-18T07:47:13.450Z,0.30
2018-03-18T07:49:40.815Z,-0.24
2018-03-18T07:52:08.223Z,-0.53
2018-03-18T07:54:35.636Z,-0.66
2018-03-18T07:57:03.046Z,-0.91
2018-03-18T07:59:30.502Z,-1.05
2018-03-18T08:01:57.889Z,-0.83
2018-03-18T08:04:25.277Z,-0.93
2018-03-18T08:06:52.685Z,-0.91
2018-03-18T08:09:20.099Z,-1.00
2018-03-18T08:11:47.539Z,-1.04
2018-03-18T08:14:14.944Z,-1.01
2018-03-18T08:16:42.354Z,-0.71
2018-03-18T08:19:09.743Z,-0.46
2018-03-18T08:21:37.268Z,-0.13
2018-03-18T08:24:04.675Z,0.00
2018-03-18T08:26:32.063Z,0.13
2018-03-18T08:28:59.472Z,0.22
2018-03-18T08:31:26.868Z,0.27
2018-03-18T08:33:54.280Z,0.30
2018-03-18T08:36:21.680Z,0.24
2018-03-18T08:38:49.082Z,0.29
2018-03-18T08:41:16.647Z,0.36
2018-03-18T08:43:44.202Z,0.26
2018-03-18T08:46:11.593Z,0.27
2018-03-18T08:48:38.992Z,-0.02
2018-03-18T08:51:06.410Z,0.35
2018-03-18T08:53:33.802Z,0.23
2018-03-18T08:56:01.371Z,0.40
2018-03-18T08:58:28.775Z,0.36
2018-03-18T09:00:56.177Z,0.36
2018-03-18T09:03:23.600Z,0.04
2018-03-18T09:05:51.009Z,-0.22
2018-03-18T09:08:18.423Z,-0.34
2018-03-18T09:10:45.869Z,-0.59
2018-03-18T09:13:13.291Z,-0.75
2018-03-18T09:15:40.692Z,-0.75
2018-03-18T09:18:08.203Z,-0.66
2018-03-18T09:20:35.602Z,-0.59
2018-03-18T09:23:03.071Z,-0.52
2018-03-18T09:25:30.484Z,-0.48
2018-03-18T09:27:57.879Z,-0.71
2018-03-18T09:30:25.299Z,-0.89
2018-03-18T09:32:52.698Z,-0.88
2018-03-18T09:35:20.140Z,-0.83
2018-03-18T09:37:47.555Z,-0.80
2018-03-18T09:40:14.982Z,-0.82
2018-03-18T09:42:42.384Z,-0.83
2018-03-18T09:45:09.795Z,-1.27
2018-03-18T09:47:37.458Z,-1.42
2018-03-18T09:50:04.864Z,-1.33
2018-03-18T09:52:32.267Z,-1.41
2018-03-18T09:54:59.692Z,-1.49
2018-03-18T09:57:27.094Z,-1.42
2018-03-18T09:59:54.503Z,-1.30
2018-03-18T10:02:21.899Z,-1.32
2018-03-18T10:04:49.390Z,-1.25
2018-03-18T10:07:16.795Z,-1.24
2018-03-18T10:09:44.209Z,-1.21
2018-03-18T10:12:11.638Z,-1.16
2018-03-18T10:14:39.060Z,-1.16
2018-03-18T10:17:06.483Z,-1.32
2018-03-18T10:19:33.888Z,-1.34
2018-03-18T10:22:01.288Z,-1.28
2018-03-18T10:24:28.723Z,-1.28
2018-03-18T10:26:56.104Z,-1.37
2018-03-18T10:29:23.500Z,-1.44
2018-03-18T10:31:51.060Z,-1.56
2018-03-18T10:34:18.471Z,-1.56
2018-03-18T10:36:45.883Z,-1.67
2018-03-18T10:39:13.297Z,-1.70
2018-03-18T10:41:40.696Z,-1.64
2018-03-18T10:44:08.178Z,-1.62
2018-03-18T10:46:36.368Z,-1.46
2018-03-18T10:49:03.780Z,-1.36
2018-03-18T10:51:31.196Z,-1.25
2018-03-18T10:53:58.607Z,-1.25
2018-03-18T10:56:26.016Z,-1.17
2018-03-18T10:58:53.427Z,-1.04
2018-03-18T11:01:26.479Z,-0.91
2018-03-18T11:03:59.738Z,-1.03
2018-03-18T11:06:27.310Z,-0.90
2018-03-18T11:08:54.780Z,-0.81
2018-03-18T11:11:22.167Z,-0.66
2018-03-18T11:13:49.589Z,-0.62
2018-03-18T11:16:17.045Z,-0.67
2018-03-18T11:18:44.399Z,-0.67
2018-03-18T11:21:11.842Z,-0.69
2018-03-18T11:23:39.275Z,-0.78
2018-03-18T11:26:06.846Z,-0.66
2018-03-18T11:28:34.239Z,-0.53
2018-03-18T11:31:01.651Z,-0.52
2018-03-18T11:33:29.067Z,-0.53
2018-03-18T11:35:56.474Z,-0.55
2018-03-18T11:38:23.867Z,-0.47
2018-03-18T11:40:51.292Z,-0.44
2018-03-18T11:43:18.704Z,-0.36
2018-03-18T11:45:46.424Z,-0.39
2018-03-18T11:48:13.843Z,-0.32
2018-03-18T11:50:41.896Z,-0.37
2018-03-18T11:53:09.323Z,-0.29
2018-03-18T11:55:36.752Z,-0.17
2018-03-18T11:58:04.158Z,-0.10
2018-03-18T12:00:31.558Z,-0.22
2018-03-18T12:02:58.983Z,-0.13
2018-03-18T12:05:26.363Z,-0.05
2018-03-18T12:07:53.792Z,0.04
2018-03-18T12:10:21.174Z,0.04
2018-03-18T12:12:48.591Z,-0.08
2018-03-18T12:15:16.032Z,-0.21
2018-03-18T12:17:43.457Z,-0.08
2018-03-18T12:20:10.867Z,-0.09
2018-03-18T12:22:38.267Z,-0.04
2018-03-18T12:25:05.699Z,-0.06
2018-03-18T12:27:33.087Z,-0.18
2018-03-18T12:30:00.601Z,0.00
2018-03-18T12:32:27.983Z,0.17
2018-03-18T12:34:55.381Z,0.21
2018-03-18T12:37:22.850Z,0.28
2018-03-18T12:40:02.092Z,0.24
2018-03-18T12:42:41.269Z,0.30
2018-03-18T12:45:08.687Z,0.33
2018-03-18T12:47:36.096Z,0.32
2018-03-18T12:50:03.488Z,0.34
2018-03-18T12:52:30.891Z,0.29
2018-03-18T12:54:58.316Z,0.36
2018-03-18T12:57:25.707Z,0.26
2018-03-18T12:59:53.127Z,0.24
2018-03-18T13:02:20.528Z,0.16
2018-03-18T13:04:47.931Z,0.14
2018-03-18T13:07:15.333Z,0.18
2018-03-18T13:09:42.733Z,0.27
2018-03-18T13:12:10.133Z,0.38
2018-03-18T13:14:37.555Z,0.53
2018-03-18T13:17:05.020Z,0.53
2018-03-18T13:19:32.355Z,0.59
2018-03-18T13:21:59.801Z,0.72
2018-03-18T13:24:27.204Z,0.82
2018-03-18T13:26:54.614Z,0.82
2018-03-18T13:29:22.014Z,0.70
2018-03-18T13:31:49.464Z,0.73
2018-03-18T13:34:16.877Z,0.72
2018-03-18T13:36:44.309Z,0.77
2018-03-18T13:39:12.057Z,0.87
2018-03-18T13:41:39.521Z,0.76
2018-03-18T13:44:06.921Z,0.75
2018-03-18T13:46:34.361Z,0.77
2018-03-18T13:49:01.769Z,0.83
2018-03-18T13:51:29.167Z,0.81
2018-03-18T13:53:56.575Z,0.69
2018-03-18T13:56:23.967Z,0.66
2018-03-18T13:58:51.383Z,0.71
2018-03-18T14:01:18.768Z,0.66
2018-03-18T14:03:46.412Z,0.59
2018-03-18T14:06:13.803Z,0.62
2018-03-18T14:08:41.198Z,0.51
2018-03-18T14:11:08.620Z,0.65
2018-03-18T14:13:36.312Z,0.71
2018-03-18T14:16:03.716Z,0.66
2018-03-18T14:18:31.130Z,0.67
2018-03-18T14:20:58.536Z,0.53
2018-03-18T14:23:25.945Z,0.37
2018-03-18T14:25:53.374Z,0.48
2018-03-18T14:28:20.781Z,0.39
2018-03-18T14:30:48.191Z,0.47
2018-03-18T14:33:15.639Z,0.49
2018-03-18T14:35:43.041Z,0.57
2018-03-18T14:38:10.452Z,0.48
2018-03-18T14:40:38.184Z,0.55
2018-03-18T14:43:05.601Z,0.54
2018-03-18T14:45:32.991Z,0.51
2018-03-18T14:48:00.408Z,0.46
2018-03-18T14:50:27.809Z,0.43
2018-03-18T14:52:55.221Z,0.42
2018-03-18T14:55:22.616Z,0.52
2018-03-18T14:57:50.027Z,0.54
2018-03-18T15:00:17.468Z,0.47
2018-03-18T15:02:44.885Z,0.48
2018-03-18T15:05:12.307Z,0.46
2018-03-18T15:07:39.699Z,0.50
2018-03-18T15:10:07.124Z,0.45
2018-03-18T15:12:34.532Z,0.32
2018-03-18T15:15:01.948Z,0.48
2018-03-18T15:17:29.351Z,0.39
2018-03-18T15:19:56.762Z,0.40
2018-03-18T15:22:24.177Z,0.31
2018-03-18T15:24:51.593Z,0.36
2018-03-18T15:27:19.000Z,0.37
2018-03-18T15:29:46.438Z,0.34
2018-03-18T15:32:13.831Z,0.35
2018-03-18T15:34:41.230Z,0.40
2018-03-18T15:37:08.643Z,0.39
2018-03-18T15:39:36.040Z,0.37
2018-03-18T15:42:03.442Z,0.33
2018-03-18T15:44:30.836Z,0.34
2018-03-18T15:46:58.251Z,0.37
2018-03-18T15:49:25.644Z,0.36
2018-03-18T15:51:53.027Z,0.44
2018-03-18T15:54:20.432Z,0.49
2018-03-18T15:56:47.830Z,0.55
2018-03-18T15:59:15.286Z,0.59
2018-03-18T16:01:42.687Z,0.46
2018-03-18T16:04:10.185Z,0.45
2018-03-18T16:06:37.510Z,0.48
2018-03-18T16:09:06.018Z,0.47
2018-03-18T16:11:33.419Z,0.49
2018-03-18T16:14:00.807Z,0.56
2018-03-18T16:16:28.256Z,0.51
2018-03-18T16:18:55.659Z,0.57
2018-03-18T16:21:23.104Z,0.51
2018-03-18T16:23:50.528Z,0.55
2018-03-18T16:26:17.905Z,0.60
2018-03-18T16:28:45.301Z,0.57
2018-03-18T16:31:14.367Z,0.51
2018-03-18T16:33:41.789Z,0.52
2018-03-18T16:36:09.175Z,0.54
2018-03-18T16:38:36.615Z,0.56
2018-03-18T16:41:03.999Z,0.64
2018-03-18T16:43:31.644Z,0.63
2018-03-18T16:45:59.032Z,0.63
2018-03-18T16:48:26.451Z,0.63
2018-03-18T16:50:53.842Z,0.59
2018-03-18T16:53:21.236Z,0.56
2018-03-18T16:55:48.683Z,0.62
2018-03-18T16:58:16.099Z,0.62
2018-03-18T17:00:43.519Z,0.53
2018-03-18T17:03:10.952Z,0.51
2018-03-18T17:05:38.364Z,0.53
2018-03-18T17:08:05.751Z,0.44
2018-03-18T17:10:33.156Z,0.42
2018-03-18T17:13:00.548Z,0.44
2018-03-18T17:15:27.952Z,0.42
2018-03-18T17:17:55.363Z,0.44
2018-03-18T17:20:22.754Z,0.38
2018-03-18T17:22:50.175Z,0.38
2018-03-18T17:25:17.627Z,0.35
2018-03-18T17:27:45.048Z,0.31
2018-03-18T17:30:12.479Z,0.35
2018-03-18T17:32:40.003Z,0.32
2018-03-18T17:35:07.407Z,0.33
2018-03-18T17:37:34.816Z,0.31
2018-03-18T17:40:03.348Z,0.35
2018-03-18T17:42:30.731Z,0.26
2018-03-18T17:45:09.801Z,0.25
2018-03-18T17:47:48.912Z,0.29
2018-03-18T17:50:28.180Z,0.24
2018-03-18T17:53:07.287Z,0.21
2018-03-18T17:55:34.687Z,0.25
2018-03-18T17:58:02.084Z,0.20
2018-03-18T18:00:29.487Z,0.22
2018-03-18T18:02:56.931Z,0.17
2018-03-18T18:05:24.361Z,0.23
2018-03-18T18:07:51.743Z,0.23
2018-03-18T18:10:19.149Z,0.25
2018-03-18T18:12:46.552Z,0.24
2018-03-18T18:15:13.930Z,0.25
2018-03-18T18:17:41.386Z,0.24
2018-03-18T18:20:08.762Z,0.21
2018-03-18T18:22:36.464Z,0.15
2018-03-18T18:25:03.851Z,0.19
2018-03-18T18:27:31.236Z,0.11
2018-03-18T18:29:58.644Z,0.18
2018-03-18T18:32:26.039Z,0.21
2018-03-18T18:34:53.451Z,0.21
2018-03-18T18:37:20.851Z,0.19
2018-03-18T18:39:48.251Z,0.19
2018-03-18T18:42:15.640Z,0.15
2018-03-18T18:44:43.047Z,0.13
2018-03-18T18:47:10.446Z,0.10
2018-03-18T18:49:37.856Z,0.03
2018-03-18T18:52:05.254Z,0.02
2018-03-18T18:54:32.664Z,0.17
2018-03-18T18:57:00.065Z,0.12
2018-03-18T18:59:27.480Z,0.09
2018-03-18T19:01:54.868Z,0.08
2018-03-18T19:04:22.272Z,0.08
2018-03-18T19:06:49.654Z,0.05
2018-03-18T19:09:17.059Z,0.08
2018-03-18T19:11:44.451Z,0.05
2018-03-18T19:14:11.879Z,0.03
2018-03-18T19:16:39.264Z,0.02
2018-03-18T19:19:06.668Z,-0.04
2018-03-18T19:21:34.063Z,-0.04
2018-03-18T19:24:01.480Z,-0.07
2018-03-18T19:26:28.877Z,-0.05
2018-03-18T19:28:56.285Z,-0.01
2018-03-18T19:31:23.689Z,-0.02
2018-03-18T19:33:51.090Z,-0.01
2018-03-18T19:36:18.499Z,-0.01
2018-03-18T19:38:45.899Z,-0.06
2018-03-18T19:41:13.311Z,-0.04
2018-03-18T19:43:40.727Z,-0.05
2018-03-18T19:46:08.131Z,-0.07
2018-03-18T19:48:35.532Z,-0.15
2018-03-18T19:51:03.200Z,-0.11
2018-03-18T19:53:30.596Z,-0.06
2018-03-18T19:55:58.015Z,-0.11
2018-03-18T19:58:25.424Z,-0.10
2018-03-18T20:00:52.863Z,-0.08
2018-03-18T20:03:20.279Z,-0.11
2018-03-18T20:05:47.952Z,-0.06
2018-03-18T20:08:15.356Z,-0.12
2018-03-18T20:10:42.877Z,-0.17
2018-03-18T20:13:10.266Z,-0.10
2018-03-18T20:15:37.664Z,-0.12
2018-03-18T20:18:05.071Z,-0.17
2018-03-18T20:20:32.512Z,-0.15
2018-03-18T20:22:59.921Z,-0.23
2018-03-18T20:25:27.311Z,-0.23
2018-03-18T20:27:54.726Z,-0.24
2018-03-18T20:30:22.214Z,-0.18
2018-03-18T20:32:49.698Z,-0.20
2018-03-18T20:35:17.120Z,-0.23
2018-03-18T20:37:44.621Z,-0.23
2018-03-18T20:40:12.267Z,-0.25
2018-03-18T20:42:39.663Z,-0.28
2018-03-18T20:45:07.081Z,-0.30
2018-03-18T20:47:34.500Z,-0.35
2018-03-18T20:50:08.266Z,-0.33
2018-03-18T20:52:36.174Z,-0.34
2018-03-18T20:55:03.561Z,-0.39
2018-03-18T20:57:30.968Z,-0.32
2018-03-18T20:59:58.367Z,-0.37
2018-03-18T21:02:25.781Z,-0.34
2018-03-18T21:04:53.178Z,-0.40
2018-03-18T21:07:20.620Z,-0.46
2018-03-18T21:09:48.016Z,-0.43
2018-03-18T21:12:15.432Z,-0.41
2018-03-18T21:14:42.862Z,-0.49
2018-03-18T21:17:10.248Z,-0.52
2018-03-18T21:19:37.712Z,-0.52
2018-03-18T21:22:05.080Z,-0.61
2018-03-18T21:24:32.483Z,-0.57
2018-03-18T21:26:59.905Z,-0.52
2018-03-18T21:29:27.346Z,-0.53
2018-03-18T21:31:54.762Z,-0.56
2018-03-18T21:34:22.143Z,-0.63
2018-03-18T21:36:49.568Z,-0.63
2018-03-18T21:39:16.968Z,-0.66
2018-03-18T21:41:44.380Z,-0.66
2018-03-18T21:44:11.783Z,-0.66
2018-03-18T21:46:39.180Z,-0.68
2018-03-18T21:49:06.598Z,-0.66
2018-03-18T21:51:34.008Z,-0.72
2018-03-18T21:54:01.419Z,-0.75
2018-03-18T21:56:28.815Z,-0.79
2018-03-18T21:58:56.198Z,-0.75
2018-03-18T22:01:23.617Z,-0.80
2018-03-18T22:03:51.015Z,-0.82
2018-03-18T22:06:18.590Z,-0.86
2018-03-18T22:08:46.030Z,-0.87
2018-03-18T22:11:13.427Z,-0.89
2018-03-18T22:13:40.848Z,-0.91
2018-03-18T22:16:08.247Z,-0.88
2018-03-18T22:18:35.675Z,-0.87
2018-03-18T22:21:03.067Z,-0.80
2018-03-18T22:23:30.491Z,-0.89
2018-03-18T22:25:57.882Z,-0.88
2018-03-18T22:28:25.274Z,-0.91
2018-03-18T22:30:52.695Z,-0.87
2018-03-18T22:33:20.127Z,-0.87
2018-03-18T22:35:47.545Z,-0.82
2018-03-18T22:38:14.936Z,-0.85
2018-03-18T22:40:42.411Z,-0.87
2018-03-18T22:43:09.827Z,-1.02
2018-03-18T22:45:37.228Z,-0.94
2018-03-18T22:48:04.626Z,-0.99
2018-03-18T22:50:32.039Z,-1.00
2018-03-18T22:52:59.439Z,-1.02
2018-03-18T22:55:26.867Z,-1.03
2018-03-18T22:57:54.292Z,-1.05
2018-03-18T23:00:21.942Z,-1.02
2018-03-18T23:02:49.356Z,-1.10
2018-03-18T23:05:16.836Z,-1.08
2018-03-18T23:07:44.268Z,-1.05
2018-03-18T23:10:11.692Z,-1.10
2018-03-18T23:12:39.100Z,-1.05
2018-03-18T23:15:06.494Z,-1.10
2018-03-18T23:17:33.916Z,-1.25
2018-03-18T23:22:35.136Z,-1.19
2018-03-18T23:25:02.545Z,-1.15
2018-03-18T23:27:29.956Z,-1.15
2018-03-18T23:29:57.359Z,-1.18
2018-03-18T23:32:24.791Z,-1.25
2018-03-18T23:34:52.205Z,-1.28
2018-03-18T23:37:19.640Z,-1.28
2018-03-18T23:39:47.055Z,-1.32
2018-03-18T23:42:14.461Z,-1.35
2018-03-18T23:44:42.532Z,-1.38
2018-03-18T23:47:09.967Z,-1.39
2018-03-18T23:49:37.437Z,-1.37
2018-03-18T23:52:04.855Z,-1.38
2018-03-18T23:54:32.260Z,-1.45
2018-03-18T23:56:59.677Z,-1.37
2018-03-18T23:59:27.085Z,-1.44
